East Keansburg, New Jersey
Current Conditions -  °F | °C
As of 1:35 PM on Monday 22 Dec 2014 (Local Time) from KLDJ Reporting Station
Overcast Overcast  
Wind Chill: 45°   Ceiling: 1200
Heat Index: 45°   Visibility: 10mi
Dew Point: 38°   Wind: 3mph
Humidity: 79%   Direction: 20°NNE
Pressure: 30.26"   Gusts: NA
Location:  40.4416°N, 74.1294°W
Report Text: KLDJ 221835Z AUTO 02003KT 10SM OVC012 07/04 A3026 RMK AO2 T00700035
Loading
Personal Weather Stations






























Interactive Weather Map New forecast layout! Learn more

10-Day Weather Forecast

Advertisements
Track Severe Weather on mobile